Current | Forecast
Updated: 6:00 PM JST on June 29, 2017
Observed at Komatsu AB, Japan
Temperature 77°F
Humidity 65%
Dew Point 64°F
Wind Variable at 2 mph
Pressure 29.89 in (Falling)
Conditions Light Rain Showers
Visibility 6.2 miles
UV 0 out of 16
Clouds (FEW) : 4000 ft
Mostly Cloudy (BKN) : 15000 ft
Mostly Cloudy (BKN) : 23000 ft
Yesterday's Maximum 79°F
Yesterday's Minimum 68°F approx.
Yesterday's Cooling Degree Days 8 approx.
Sunrise4:40 AM JST
Sunset7:16 PM JST
Moon Rise10:05 AM JST
Moon Set11:09 PM JST
Moon PhaseMoon Phase
Waxing Crescent
Raw METARMETAR RJNK 290900Z VRB02KT 9999 -SHRA FEW040 BKN150 BKN230 25/18 Q1012


Monday
. High: 71° F.
Tuesday
. High: 66° F.
Wednesday
. High: 62° F.
Thursday
. High: 68° F.
Friday
. High: 69° F.
Saturday
. High: 66° F.
Sunday
. High: 66° F.
Monday
. High: 66° F.

Units: English | Metric

Find the Weather for any City, State or Zipcode, or Country:

U.S. State List | Severe Weather | Tropical Storms | Ski Conditions
United States | Canada | Central America | South America | Asia | Europe | Australia | Africa | Islands

Weather Underground

© Copyright 2017
The Weather Company, LLC